Time;durP1;ratioP1;P1;durP2;ratioP2;P2;SDS_P1;SDS_P2;PMS_P1;PMS_P2;Temp;Humidity;BMP_temperature;BMP_pressure;BME280_temperature;BME280_humidity;BME280_pressure;Samples;Min_cycle;Max_cycle;Signal;HPM_P1;HPM_P2
2022/05/29 00:00:50;;;;;;;;;;;;;;;;;;5093288;28;19969;-52
2022/05/29 00:03:17;;;;;;;;;;;;;;;;;;5093348;28;19950;-53
2022/05/29 00:05:43;;;;;;;;;;;;;;;;;;5093005;28;20311;-53
2022/05/29 00:08:09;;;;;;;;;;;;;;;;;;5093079;28;20397;-50
2022/05/29 00:10:36;;;;;;;;;;;;;;;;;;5092818;28;19985;-56
2022/05/29 00:13:02;;;;;;;;;;;;;;;;;;5092949;28;19920;-48
2022/05/29 00:15:29;;;;;;;;;;;;;;;;;;5092994;28;19909;-44
2022/05/29 00:17:55;;;;;;;;;;;;;;;;;;5092603;28;19909;-53
2022/05/29 00:20:22;;;;;;;;;;;;;;;;;;5092789;28;19908;-48
2022/05/29 00:22:48;;;;;;;;;;;;;;;;;;5092595;28;19953;-54
2022/05/29 00:25:15;;;;;;;;;;;;;;;;;;5093041;28;19908;-59
2022/05/29 00:27:41;;;;;;;;;;;;;;;;;;5093177;28;19918;-46
2022/05/29 00:30:08;;;;;;;;;;;;;;;;;;5093085;28;19909;-54
2022/05/29 00:32:34;;;;;;;;;;;;;;;;;;5092250;28;20328;-53
2022/05/29 00:35:00;;;;;;;;;;;;;;;;;;5093030;28;19931;-56
2022/05/29 00:37:27;;;;;;;;;;;;;;;;;;5092508;28;19999;-48
2022/05/29 00:39:53;;;;;;;;;;;;;;;;;;5092788;28;20049;-52
2022/05/29 00:42:20;;;;;;;;;;;;;;;;;;5091974;28;19914;-47
2022/05/29 00:44:46;;;;;;;;;;;;;;;;;;5092148;28;19965;-49
2022/05/29 00:47:13;;;;;;;;;;;;;;;;;;5092454;28;19909;-49
2022/05/29 00:49:39;;;;;;;;;;;;;;;;;;5074722;28;19908;-54
2022/05/29 00:52:06;;;;;;;;;;;;;;;;;;5092565;28;19924;-53
2022/05/29 00:54:32;;;;;;;;;;;;;;;;;;5092728;28;19956;-46
2022/05/29 00:56:59;;;;;;;;;;;;;;;;;;5092246;28;19916;-52
2022/05/29 00:59:25;;;;;;;;;;;;;;;;;;5070171;28;19912;-53
2022/05/29 01:01:51;;;;;;;;;;;;;;;;;;5072236;28;19908;-52
2022/05/29 01:04:18;;;;;;;;;;;;;;;;;;5072285;28;19908;-53
2022/05/29 01:06:44;;;;;;;;;;;;;;;;;;5058166;28;20331;-43
2022/05/29 01:09:11;;;;;;;;;;;;;;;;;;5092092;28;19933;-47
2022/05/29 01:11:38;;;;;;;;;;;;;;;;;;5091848;28;19959;-52
2022/05/29 01:14:04;;;;;;;;;;;;;;;;;;5091020;28;19982;-43
2022/05/29 01:16:31;;;;;;;;;;;;;;;;;;5091845;28;19915;-45
2022/05/29 01:18:57;;;;;;;;;;;;;;;;;;5092558;28;19930;-51
2022/05/29 01:21:24;;;;;;;;;;;;;;;;;;5092254;28;19908;-43
2022/05/29 01:23:51;;;;;;;;;;;;;;;;;;5091170;28;19952;-47
2022/05/29 01:26:17;;;;;;;;;;;;;;;;;;5092192;28;19992;-46
2022/05/29 01:28:43;;;;;;;;;;;;;;;;;;5091893;28;19958;-43
2022/05/29 01:31:10;;;;;;;;;;;;;;;;;;5092434;28;19996;-45
2022/05/29 01:33:36;;;;;;;;;;;;;;;;;;5092319;28;19916;-52
2022/05/29 01:36:03;;;;;;;;;;;;;;;;;;5092014;28;19927;-54
2022/05/29 01:38:29;;;;;;;;;;;;;;;;;;5091637;28;19916;-44
2022/05/29 01:40:56;;;;;;;;;;;;;;;;;;5092390;28;19912;-58
2022/05/29 01:43:22;;;;;;;;;;;;;;;;;;5092111;28;19908;-52
2022/05/29 01:45:54;;;;;;;;;;;;;;;;;;5092311;28;19948;-52
2022/05/29 01:48:21;;;;;;;;;;;;;;;;;;5092157;28;19915;-48
2022/05/29 01:50:47;;;;;;;;;;;;;;;;;;5091572;28;19969;-46
2022/05/29 01:53:14;;;;;;;;;;;;;;;;;;5094524;28;19915;-49
2022/05/29 01:55:40;;;;;;;;;;;;;;;;;;5095619;28;20321;-47
2022/05/29 01:58:07;;;;;;;;;;;;;;;;;;5096210;28;20250;-53
2022/05/29 02:00:33;;;;;;;;;;;;;;;;;;5095525;28;19986;-53
2022/05/29 02:03:00;;;;;;;;;;;;;;;;;;5095609;28;20189;-59
2022/05/29 02:05:26;;;;;;;;;;;;;;;;;;5095590;28;19953;-55
2022/05/29 02:07:53;;;;;;;;;;;;;;;;;;5095084;28;20385;-43
2022/05/29 02:10:19;;;;;;;;;;;;;;;;;;5095651;28;19912;-46
2022/05/29 02:12:46;;;;;;;;;;;;;;;;;;5094496;28;20011;-49
2022/05/29 02:15:12;;;;;;;;;;;;;;;;;;5095103;28;19977;-48
2022/05/29 02:17:39;;;;;;;;;;;;;;;;;;5096073;28;19915;-40
2022/05/29 02:20:06;;;;;;;;;;;;;;;;;;5094551;28;19912;-44
2022/05/29 02:22:32;;;;;;;;;;;;;;;;;;5092403;28;19915;-49
2022/05/29 02:24:59;;;;;;;;;;;;;;;;;;5095950;28;20007;-54
2022/05/29 02:27:28;;;;;;;;;;;;;;;;;;5091669;28;19915;-53
2022/05/29 02:29:55;;;;;;;;;;;;;;;;;;5095173;28;19965;-45
2022/05/29 02:32:21;;;;;;;;;;;;;;;;;;5091454;28;19923;-43
2022/05/29 02:34:48;;;;;;;;;;;;;;;;;;5091687;28;19931;-41
2022/05/29 02:37:14;;;;;;;;;;;;;;;;;;5090027;28;20366;-44
2022/05/29 02:39:41;;;;;;;;;;;;;;;;;;5092148;28;19939;-58
2022/05/29 02:42:07;;;;;;;;;;;;;;;;;;5092301;28;19916;-41
2022/05/29 02:44:34;;;;;;;;;;;;;;;;;;5091911;28;19995;-45
2022/05/29 02:47:00;;;;;;;;;;;;;;;;;;5089916;28;19970;-42
2022/05/29 02:49:27;;;;;;;;;;;;;;;;;;5092644;28;19908;-42
2022/05/29 02:51:53;;;;;;;;;;;;;;;;;;5093313;28;19916;-49
2022/05/29 02:54:19;;;;;;;;;;;;;;;;;;5094369;28;19940;-51
2022/05/29 02:56:46;;;;;;;;;;;;;;;;;;5094559;28;19915;-49
2022/05/29 02:59:12;;;;;;;;;;;;;;;;;;5094747;28;19994;-52
2022/05/29 03:01:39;;;;;;;;;;;;;;;;;;5094414;28;19916;-53
2022/05/29 03:04:07;;;;;;;;;;;;;;;;;;5093227;28;19972;-58
2022/05/29 03:06:33;;;;;;;;;;;;;;;;;;5093912;28;19909;-47
2022/05/29 03:08:59;;;;;;;;;;;;;;;;;;5094471;28;19916;-58
2022/05/29 03:11:26;;;;;;;;;;;;;;;;;;5094037;28;20030;-50
2022/05/29 03:13:52;;;;;;;;;;;;;;;;;;5094188;28;20010;-46
2022/05/29 03:16:19;;;;;;;;;;;;;;;;;;5094150;28;20390;-51
2022/05/29 03:18:46;;;;;;;;;;;;;;;;;;5080141;28;20072;-48
2022/05/29 03:21:13;;;;;;;;;;;;;;;;;;5084184;28;19931;-49
2022/05/29 03:23:40;;;;;;;;;;;;;;;;;;5086660;28;19998;-50
2022/05/29 03:26:07;;;;;;;;;;;;;;;;;;5093780;28;20020;-48
2022/05/29 03:28:34;;;;;;;;;;;;;;;;;;5094127;28;19908;-50
2022/05/29 03:31:00;;;;;;;;;;;;;;;;;;5093174;28;19930;-53
2022/05/29 03:33:27;;;;;;;;;;;;;;;;;;5075473;28;19999;-42
2022/05/29 03:35:53;;;;;;;;;;;;;;;;;;5093606;28;19904;-55
2022/05/29 03:38:20;;;;;;;;;;;;;;;;;;5093267;28;19908;-44
2022/05/29 03:40:46;;;;;;;;;;;;;;;;;;5092375;28;19908;-42
2022/05/29 03:43:13;;;;;;;;;;;;;;;;;;5093477;28;19908;-46
2022/05/29 03:45:39;;;;;;;;;;;;;;;;;;5092981;28;19908;-52
2022/05/29 03:48:06;;;;;;;;;;;;;;;;;;5093814;28;19912;-41
2022/05/29 03:50:34;;;;;;;;;;;;;;;;;;5093505;28;19927;-47
2022/05/29 03:53:00;;;;;;;;;;;;;;;;;;5093216;28;19915;-44
2022/05/29 03:55:27;;;;;;;;;;;;;;;;;;5093529;28;19916;-53
2022/05/29 03:57:53;;;;;;;;;;;;;;;;;;5093149;28;20363;-46
2022/05/29 04:00:20;;;;;;;;;;;;;;;;;;5093421;28;19916;-45
2022/05/29 04:02:46;;;;;;;;;;;;;;;;;;5093001;28;19956;-45
2022/05/29 04:05:13;;;;;;;;;;;;;;;;;;5093151;28;19931;-45
2022/05/29 04:13:09;;;;;;;;;;;;;;;;;;5070463;28;19923;-48
2022/05/29 04:15:41;;;;;;;;;;;;;;;;;;5080803;28;19954;-40
2022/05/29 04:18:07;;;;;;;;;;;;;;;;;;5078399;28;19915;-44
2022/05/29 04:20:34;;;;;;;;;;;;;;;;;;5085524;28;20318;-47
2022/05/29 04:23:01;;;;;;;;;;;;;;;;;;5090055;28;19908;-45
2022/05/29 04:25:27;;;;;;;;;;;;;;;;;;5092408;28;20002;-44
2022/05/29 04:27:54;;;;;;;;;;;;;;;;;;5092943;28;19965;-43
2022/05/29 04:30:20;;;;;;;;;;;;;;;;;;5092833;28;19908;-40
2022/05/29 04:33:07;;;;;;;;;;;;;;;;;;5092843;28;19966;-46
2022/05/29 04:35:33;;;;;;;;;;;;;;;;;;5092147;28;19920;-42
2022/05/29 04:37:59;;;;;;;;;;;;;;;;;;5092478;28;19961;-43
2022/05/29 04:40:26;;;;;;;;;;;;;;;;;;5092558;28;19956;-55
2022/05/29 04:42:52;;;;;;;;;;;;;;;;;;5092591;28;19908;-52
2022/05/29 04:45:19;;;;;;;;;;;;;;;;;;5092397;28;19960;-47
2022/05/29 04:47:45;;;;;;;;;;;;;;;;;;5092769;28;19924;-46
2022/05/29 04:50:12;;;;;;;;;;;;;;;;;;5091833;28;19908;-47
2022/05/29 04:52:38;;;;;;;;;;;;;;;;;;5078065;28;19980;-56
2022/05/29 04:55:04;;;;;;;;;;;;;;;;;;5080071;28;19915;-52
2022/05/29 04:57:31;;;;;;;;;;;;;;;;;;5083347;28;19988;-51
2022/05/29 04:59:57;;;;;;;;;;;;;;;;;;5089079;28;19927;-42
2022/05/29 05:02:24;;;;;;;;;;;;;;;;;;5073794;28;19916;-47
2022/05/29 05:04:50;;;;;;;;;;;;;;;;;;5073402;28;19917;-56
2022/05/29 05:07:17;;;;;;;;;;;;;;;;;;5068931;28;19929;-52
2022/05/29 05:09:43;;;;;;;;;;;;;;;;;;5071451;28;19956;-43
2022/05/29 05:12:10;;;;;;;;;;;;;;;;;;5072988;28;19948;-48
2022/05/29 05:14:36;;;;;;;;;;;;;;;;;;5071959;28;19916;-57
2022/05/29 05:17:03;;;;;;;;;;;;;;;;;;5071315;28;19915;-46
2022/05/29 05:19:29;;;;;;;;;;;;;;;;;;5072020;28;19908;-46
2022/05/29 05:21:56;;;;;;;;;;;;;;;;;;5071518;28;19917;-47
2022/05/29 05:24:22;;;;;;;;;;;;;;;;;;5071584;28;19931;-48
2022/05/29 05:26:49;;;;;;;;;;;;;;;;;;5072125;28;19909;-53
2022/05/29 05:29:15;;;;;;;;;;;;;;;;;;5075987;28;20267;-50
2022/05/29 05:31:42;;;;;;;;;;;;;;;;;;5075881;28;19916;-50
2022/05/29 05:34:08;;;;;;;;;;;;;;;;;;5075986;28;19915;-45
2022/05/29 05:36:35;;;;;;;;;;;;;;;;;;5075265;28;19911;-50
2022/05/29 05:39:02;;;;;;;;;;;;;;;;;;5074905;28;19912;-46
2022/05/29 05:41:28;;;;;;;;;;;;;;;;;;5076101;28;20267;-48
2022/05/29 05:43:55;;;;;;;;;;;;;;;;;;5075355;28;19947;-57
2022/05/29 05:46:21;;;;;;;;;;;;;;;;;;5075098;28;19970;-53
2022/05/29 05:48:48;;;;;;;;;;;;;;;;;;5075105;28;19916;-44
2022/05/29 05:51:14;;;;;;;;;;;;;;;;;;5075205;28;19943;-52
2022/05/29 05:53:41;;;;;;;;;;;;;;;;;;5075888;28;19908;-39
2022/05/29 05:56:08;;;;;;;;;;;;;;;;;;5074752;28;19909;-52
2022/05/29 05:58:35;;;;;;;;;;;;;;;;;;5075564;28;19927;-48
2022/05/29 06:01:01;;;;;;;;;;;;;;;;;;5075191;28;19909;-44
2022/05/29 06:03:27;;;;;;;;;;;;;;;;;;5075267;28;19909;-49
2022/05/29 06:05:54;;;;;;;;;;;;;;;;;;5075093;28;20000;-49
2022/05/29 06:08:20;;;;;;;;;;;;;;;;;;5092510;28;19927;-49
2022/05/29 06:10:47;;;;;;;;;;;;;;;;;;5094268;28;19912;-48
2022/05/29 06:13:13;;;;;;;;;;;;;;;;;;5094691;28;20299;-59
2022/05/29 06:15:44;;;;;;;;;;;;;;;;;;5094824;28;19915;-59
2022/05/29 06:18:10;;;;;;;;;;;;;;;;;;5095322;28;19977;-57
2022/05/29 06:20:37;;;;;;;;;;;;;;;;;;5094842;28;19908;-57
2022/05/29 06:23:03;;;;;;;;;;;;;;;;;;5094974;28;19962;-53
2022/05/29 06:25:30;;;;;;;;;;;;;;;;;;5095239;28;19908;-43
2022/05/29 06:27:56;;;;;;;;;;;;;;;;;;5094934;28;20286;-59
2022/05/29 06:30:23;;;;;;;;;;;;;;;;;;5094915;28;19988;-44
2022/05/29 06:32:49;;;;;;;;;;;;;;;;;;5095439;28;19914;-51
2022/05/29 06:35:16;;;;;;;;;;;;;;;;;;5095254;28;19919;-52
2022/05/29 06:37:42;;;;;;;;;;;;;;;;;;5093986;28;19944;-57
2022/05/29 06:40:09;;;;;;;;;;;;;;;;;;5094539;28;19915;-48
2022/05/29 06:42:35;;;;;;;;;;;;;;;;;;5076499;28;20311;-55
2022/05/29 06:45:02;;;;;;;;;;;;;;;;;;5094589;28;20368;-47
2022/05/29 06:47:28;;;;;;;;;;;;;;;;;;5094840;28;19966;-52
2022/05/29 06:49:55;;;;;;;;;;;;;;;;;;5094978;28;19908;-50
2022/05/29 06:52:21;;;;;;;;;;;;;;;;;;5094798;28;20061;-49
2022/05/29 06:54:47;;;;;;;;;;;;;;;;;;5094504;28;19916;-57
2022/05/29 06:57:36;;;;;;;;;;;;;;;;;;5095249;28;19961;-52
2022/05/29 07:08:14;;;;;;;;;;;;;;;;;;5094275;28;19970;-47
2022/05/29 07:10:40;;;;;;;;;;;;;;;;;;5094160;28;19958;-46
2022/05/29 07:13:07;;;;;;;;;;;;;;;;;;5094686;28;20208;-44
2022/05/29 07:15:34;;;;;;;;;;;;;;;;;;5094467;28;20342;-51
2022/05/29 07:18:00;;;;;;;;;;;;;;;;;;5078404;28;20228;-44
2022/05/29 07:20:28;;;;;;;;;;;;;;;;;;5076971;28;19944;-46
2022/05/29 07:22:56;;;;;;;;;;;;;;;;;;5072286;28;19988;-51
2022/05/29 07:25:22;;;;;;;;;;;;;;;;;;5078366;28;20003;-55
2022/05/29 07:27:49;;;;;;;;;;;;;;;;;;5087239;28;20339;-47
2022/05/29 07:30:15;;;;;;;;;;;;;;;;;;5082221;28;20303;-51
2022/05/29 07:32:42;;;;;;;;;;;;;;;;;;5087619;28;20276;-53
2022/05/29 07:35:09;;;;;;;;;;;;;;;;;;5082752;28;20284;-58
2022/05/29 07:37:35;;;;;;;;;;;;;;;;;;5082109;28;20264;-44
2022/05/29 07:40:02;;;;;;;;;;;;;;;;;;5081896;28;19943;-49
2022/05/29 07:45:13;;;;;;;;;;;;;;;;;;5083633;28;20350;-54
2022/05/29 07:47:40;;;;;;;;;;;;;;;;;;5083775;28;19908;-53
2022/05/29 07:50:06;;;;;;;;;;;;;;;;;;5082791;28;19912;-49
2022/05/29 07:52:33;;;;;;;;;;;;;;;;;;5085677;28;19922;-56
2022/05/29 07:54:59;;;;;;;;;;;;;;;;;;5083945;28;20461;-56
2022/05/29 07:57:26;;;;;;;;;;;;;;;;;;5085503;28;20341;-48
2022/05/29 07:59:52;;;;;;;;;;;;;;;;;;5082315;28;19919;-50
2022/05/29 08:02:19;;;;;;;;;;;;;;;;;;5086317;28;19912;-50
2022/05/29 08:04:45;;;;;;;;;;;;;;;;;;5084638;28;19912;-44
2022/05/29 08:07:12;;;;;;;;;;;;;;;;;;5087365;28;19923;-59
2022/05/29 08:09:38;;;;;;;;;;;;;;;;;;5081671;28;19912;-51
2022/05/29 08:12:05;;;;;;;;;;;;;;;;;;5086318;28;20371;-48
2022/05/29 08:14:32;;;;;;;;;;;;;;;;;;5086072;28;20354;-53
2022/05/29 08:16:58;;;;;;;;;;;;;;;;;;5084291;28;19913;-53
2022/05/29 08:19:25;;;;;;;;;;;;;;;;;;5080648;28;19909;-48
2022/05/29 08:21:51;;;;;;;;;;;;;;;;;;5088715;28;19943;-50
2022/05/29 08:32:39;;;;;;;;;;;;;;;;;;5049159;28;19923;-51
2022/05/29 08:35:06;;;;;;;;;;;;;;;;;;5073460;28;19913;-46
2022/05/29 08:37:32;;;;;;;;;;;;;;;;;;5072818;28;19908;-47
2022/05/29 08:40:00;;;;;;;;;;;;;;;;;;5073475;28;20351;-51
2022/05/29 08:42:27;;;;;;;;;;;;;;;;;;5073263;28;19908;-46
2022/05/29 08:44:53;;;;;;;;;;;;;;;;;;5071984;28;19999;-46
2022/05/29 08:47:20;;;;;;;;;;;;;;;;;;5055027;28;19908;-56
2022/05/29 08:49:46;;;;;;;;;;;;;;;;;;5072717;28;19923;-53
2022/05/29 08:52:13;;;;;;;;;;;;;;;;;;5054714;28;19938;-45
2022/05/29 08:54:39;;;;;;;;;;;;;;;;;;5072924;28;19915;-42
2022/05/29 08:57:06;;;;;;;;;;;;;;;;;;5073487;28;20021;-42
2022/05/29 08:59:32;;;;;;;;;;;;;;;;;;5073016;28;19915;-49
2022/05/29 09:01:59;;;;;;;;;;;;;;;;;;5055566;28;20029;-47
2022/05/29 09:04:25;;;;;;;;;;;;;;;;;;5077336;28;19916;-50
2022/05/29 09:06:52;;;;;;;;;;;;;;;;;;5081596;28;19920;-56
2022/05/29 09:09:18;;;;;;;;;;;;;;;;;;5097134;28;20262;-46
2022/05/29 09:11:47;;;;;;;;;;;;;;;;;;5096831;28;19916;-51
2022/05/29 09:14:14;;;;;;;;;;;;;;;;;;5096954;28;19908;-54
2022/05/29 09:16:40;;;;;;;;;;;;;;;;;;5096815;28;20285;-47
2022/05/29 09:19:08;;;;;;;;;;;;;;;;;;5095715;28;19912;-58
2022/05/29 09:21:34;;;;;;;;;;;;;;;;;;5096182;28;20320;-52
2022/05/29 09:24:01;;;;;;;;;;;;;;;;;;5097203;28;20314;-52
2022/05/29 09:26:27;;;;;;;;;;;;;;;;;;5096398;28;19932;-48
2022/05/29 09:28:54;;;;;;;;;;;;;;;;;;5096607;28;19915;-53
2022/05/29 09:31:20;;;;;;;;;;;;;;;;;;5096564;28;19917;-53
2022/05/29 09:33:46;;;;;;;;;;;;;;;;;;5096790;28;19999;-51
2022/05/29 09:36:13;;;;;;;;;;;;;;;;;;5096259;28;19904;-59
2022/05/29 09:38:39;;;;;;;;;;;;;;;;;;5078059;28;19973;-51
2022/05/29 09:41:06;;;;;;;;;;;;;;;;;;5096678;28;19908;-47
2022/05/29 09:43:32;;;;;;;;;;;;;;;;;;5095947;28;20252;-46
2022/05/29 09:45:59;;;;;;;;;;;;;;;;;;5096490;28;19910;-45
2022/05/29 09:51:10;;;;;;;;;;;;;;;;;;5096529;28;19942;-53
2022/05/29 09:53:36;;;;;;;;;;;;;;;;;;5096322;28;20389;-47
2022/05/29 09:56:03;;;;;;;;;;;;;;;;;;5095987;28;19908;-41
2022/05/29 09:58:29;;;;;;;;;;;;;;;;;;5095783;28;19954;-55
2022/05/29 10:00:56;;;;;;;;;;;;;;;;;;5096042;28;19908;-46
2022/05/29 10:03:22;;;;;;;;;;;;;;;;;;5096237;28;19929;-48
2022/05/29 10:05:49;;;;;;;;;;;;;;;;;;5096335;28;19908;-53
2022/05/29 10:08:15;;;;;;;;;;;;;;;;;;5096114;28;19920;-56
2022/05/29 10:10:41;;;;;;;;;;;;;;;;;;5095779;28;19919;-48
2022/05/29 10:13:08;;;;;;;;;;;;;;;;;;5095165;28;19935;-46
2022/05/29 10:15:34;;;;;;;;;;;;;;;;;;5096037;28;20006;-58
2022/05/29 10:18:01;;;;;;;;;;;;;;;;;;5095705;28;19908;-54
2022/05/29 10:20:29;;;;;;;;;;;;;;;;;;5095762;28;19908;-58
2022/05/29 10:22:56;;;;;;;;;;;;;;;;;;5095762;28;19923;-55
2022/05/29 10:25:22;;;;;;;;;;;;;;;;;;5095338;28;19908;-48
2022/05/29 10:27:49;;;;;;;;;;;;;;;;;;5095783;28;19915;-57
2022/05/29 10:30:15;;;;;;;;;;;;;;;;;;5095211;28;19915;-59
2022/05/29 10:32:41;;;;;;;;;;;;;;;;;;5095886;28;19919;-47
2022/05/29 10:35:08;;;;;;;;;;;;;;;;;;5095130;28;19908;-50
2022/05/29 10:37:34;;;;;;;;;;;;;;;;;;5095645;28;19955;-50
2022/05/29 10:40:01;;;;;;;;;;;;;;;;;;5095577;28;19961;-47
2022/05/29 10:42:28;;;;;;;;;;;;;;;;;;5095442;28;19909;-58
2022/05/29 10:44:54;;;;;;;;;;;;;;;;;;5095329;28;19915;-60
2022/05/29 10:47:21;;;;;;;;;;;;;;;;;;5095525;28;19908;-46
2022/05/29 10:49:47;;;;;;;;;;;;;;;;;;5095462;28;19908;-58
2022/05/29 10:52:14;;;;;;;;;;;;;;;;;;5094962;28;19988;-55
2022/05/29 10:54:40;;;;;;;;;;;;;;;;;;5094710;28;20285;-54
2022/05/29 10:57:07;;;;;;;;;;;;;;;;;;5095325;28;20364;-56
2022/05/29 10:59:33;;;;;;;;;;;;;;;;;;5095137;28;19948;-57
2022/05/29 11:04:52;;;;;;;;;;;;;;;;;;5071235;28;19908;-46
2022/05/29 11:07:18;;;;;;;;;;;;;;;;;;5094584;28;19920;-41
2022/05/29 11:09:45;;;;;;;;;;;;;;;;;;5094829;28;19954;-59
2022/05/29 11:12:11;;;;;;;;;;;;;;;;;;5095108;28;20289;-53
2022/05/29 11:14:39;;;;;;;;;;;;;;;;;;5094642;28;20259;-55
2022/05/29 11:17:06;;;;;;;;;;;;;;;;;;5095033;28;19912;-43
2022/05/29 11:19:33;;;;;;;;;;;;;;;;;;5094771;28;19953;-42
2022/05/29 11:21:59;;;;;;;;;;;;;;;;;;5094805;28;20001;-46
2022/05/29 11:24:25;;;;;;;;;;;;;;;;;;5093546;28;19908;-54
2022/05/29 11:26:52;;;;;;;;;;;;;;;;;;5086619;28;19962;-46
2022/05/29 11:29:18;;;;;;;;;;;;;;;;;;5074154;28;19908;-60
2022/05/29 11:31:45;;;;;;;;;;;;;;;;;;5074250;28;19916;-44
2022/05/29 11:34:11;;;;;;;;;;;;;;;;;;5074240;28;19916;-56
2022/05/29 11:36:38;;;;;;;;;;;;;;;;;;5073192;28;19936;-55
2022/05/29 11:39:05;;;;;;;;;;;;;;;;;;5074036;28;19930;-53
2022/05/29 11:41:31;;;;;;;;;;;;;;;;;;5074268;28;19909;-52
2022/05/29 11:43:58;;;;;;;;;;;;;;;;;;5073781;28;19912;-57
2022/05/29 11:51:54;;;;;;;;;;;;;;;;;;5074059;28;19924;-45
2022/05/29 11:54:20;;;;;;;;;;;;;;;;;;5073607;28;19908;-49
2022/05/29 11:56:47;;;;;;;;;;;;;;;;;;5073446;28;19908;-50
2022/05/29 11:59:13;;;;;;;;;;;;;;;;;;5073552;28;19908;-44
2022/05/29 12:01:40;;;;;;;;;;;;;;;;;;5074248;28;19908;-51
2022/05/29 12:04:06;;;;;;;;;;;;;;;;;;5073806;28;19913;-46
2022/05/29 12:06:33;;;;;;;;;;;;;;;;;;5075396;28;20274;-50
2022/05/29 12:08:59;;;;;;;;;;;;;;;;;;5094260;28;20339;-41
2022/05/29 12:11:26;;;;;;;;;;;;;;;;;;5093714;28;19935;-46
2022/05/29 12:13:52;;;;;;;;;;;;;;;;;;5093602;28;19916;-57
2022/05/29 12:16:23;;;;;;;;;;;;;;;;;;5093060;28;20210;-52
2022/05/29 12:18:50;;;;;;;;;;;;;;;;;;5093668;28;19915;-58
2022/05/29 12:21:16;;;;;;;;;;;;;;;;;;5093417;28;19950;-44
2022/05/29 12:23:43;;;;;;;;;;;;;;;;;;5093903;28;19908;-53
2022/05/29 12:26:09;;;;;;;;;;;;;;;;;;5093580;28;19904;-54
2022/05/29 12:28:36;;;;;;;;;;;;;;;;;;5093143;28;19912;-52
2022/05/29 12:31:02;;;;;;;;;;;;;;;;;;5093751;28;20007;-40
2022/05/29 12:33:29;;;;;;;;;;;;;;;;;;5093445;28;19915;-58
2022/05/29 12:35:55;;;;;;;;;;;;;;;;;;5093473;28;19916;-51
2022/05/29 12:38:21;;;;;;;;;;;;;;;;;;5093749;28;19908;-49
2022/05/29 12:40:48;;;;;;;;;;;;;;;;;;5093626;28;19908;-61
2022/05/29 12:43:15;;;;;;;;;;;;;;;;;;5093234;28;19959;-58
2022/05/29 12:45:41;;;;;;;;;;;;;;;;;;5092846;28;20373;-49
2022/05/29 12:48:07;;;;;;;;;;;;;;;;;;5093390;28;20235;-54
2022/05/29 12:50:34;;;;;;;;;;;;;;;;;;5093096;28;19908;-53
2022/05/29 12:53:00;;;;;;;;;;;;;;;;;;5093542;28;19916;-54
2022/05/29 12:55:27;;;;;;;;;;;;;;;;;;5093440;28;19912;-56
2022/05/29 12:57:53;;;;;;;;;;;;;;;;;;5093134;28;20350;-52
2022/05/29 13:00:20;;;;;;;;;;;;;;;;;;5093325;28;19908;-53
2022/05/29 13:02:46;;;;;;;;;;;;;;;;;;5093034;28;19918;-59
2022/05/29 13:05:13;;;;;;;;;;;;;;;;;;5092955;28;19970;-58
2022/05/29 13:07:39;;;;;;;;;;;;;;;;;;5093196;28;20349;-53
2022/05/29 13:10:06;;;;;;;;;;;;;;;;;;5093037;28;19978;-47
2022/05/29 13:12:32;;;;;;;;;;;;;;;;;;5092502;28;19943;-51
2022/05/29 13:14:58;;;;;;;;;;;;;;;;;;5092942;28;20366;-44
2022/05/29 13:17:25;;;;;;;;;;;;;;;;;;5093361;28;20370;-49
2022/05/29 13:19:52;;;;;;;;;;;;;;;;;;5092991;28;19944;-55
2022/05/29 13:22:18;;;;;;;;;;;;;;;;;;5093084;28;19984;-55
2022/05/29 13:24:44;;;;;;;;;;;;;;;;;;5092433;28;19919;-43
2022/05/29 13:27:20;;;;;;;;;;;;;;;;;;5092310;28;19915;-44
2022/05/29 13:29:46;;;;;;;;;;;;;;;;;;5093086;28;19951;-56
2022/05/29 13:32:13;;;;;;;;;;;;;;;;;;5092824;28;19939;-53
2022/05/29 13:34:40;;;;;;;;;;;;;;;;;;5092736;28;20270;-59
2022/05/29 13:37:06;;;;;;;;;;;;;;;;;;5093040;28;19918;-59
2022/05/29 13:39:33;;;;;;;;;;;;;;;;;;5092874;28;19908;-58
2022/05/29 13:41:59;;;;;;;;;;;;;;;;;;5093077;28;19996;-53
2022/05/29 13:44:27;;;;;;;;;;;;;;;;;;5092264;28;19908;-56
2022/05/29 13:46:54;;;;;;;;;;;;;;;;;;5092745;28;19954;-53
2022/05/29 13:49:21;;;;;;;;;;;;;;;;;;5095263;28;19915;-51
2022/05/29 13:51:48;;;;;;;;;;;;;;;;;;5096525;28;19916;-45
2022/05/29 13:54:14;;;;;;;;;;;;;;;;;;5096538;28;19942;-45
2022/05/29 13:56:41;;;;;;;;;;;;;;;;;;5096101;28;19930;-52
2022/05/29 14:04:37;;;;;;;;;;;;;;;;;;5096046;28;20318;-54
2022/05/29 14:07:03;;;;;;;;;;;;;;;;;;5096191;28;19977;-42
2022/05/29 14:09:30;;;;;;;;;;;;;;;;;;5096614;28;19927;-53
2022/05/29 14:11:56;;;;;;;;;;;;;;;;;;5096309;28;19980;-48
2022/05/29 14:14:23;;;;;;;;;;;;;;;;;;5096398;28;20404;-45
2022/05/29 14:16:49;;;;;;;;;;;;;;;;;;5096176;28;20283;-47
2022/05/29 14:19:16;;;;;;;;;;;;;;;;;;5095998;28;19908;-54
2022/05/29 14:21:42;;;;;;;;;;;;;;;;;;5095990;28;19915;-54
2022/05/29 14:24:08;;;;;;;;;;;;;;;;;;5096223;28;19916;-52
2022/05/29 14:26:48;;;;;;;;;;;;;;;;;;5095538;28;19914;-55
2022/05/29 14:29:14;;;;;;;;;;;;;;;;;;5095833;28;19950;-56
2022/05/29 14:31:41;;;;;;;;;;;;;;;;;;5095809;28;20422;-57
2022/05/29 14:34:07;;;;;;;;;;;;;;;;;;5095891;28;20235;-58
2022/05/29 14:36:34;;;;;;;;;;;;;;;;;;5095259;28;20251;-57
2022/05/29 14:39:00;;;;;;;;;;;;;;;;;;5095555;28;19908;-46
2022/05/29 14:41:27;;;;;;;;;;;;;;;;;;5095845;28;20022;-49
2022/05/29 14:43:53;;;;;;;;;;;;;;;;;;5095546;28;19988;-52
2022/05/29 14:46:48;;;;;;;;;;;;;;;;;;5095736;28;19909;-56
2022/05/29 14:49:06;;;;;;;;;;;;;;;;;;5095171;28;20058;-57
2022/05/29 14:51:33;;;;;;;;;;;;;;;;;;5095311;28;20422;-53
2022/05/29 14:53:59;;;;;;;;;;;;;;;;;;5095519;28;19908;-58
2022/05/29 14:56:26;;;;;;;;;;;;;;;;;;5095228;28;19919;-49
2022/05/29 14:58:53;;;;;;;;;;;;;;;;;;5095062;28;19915;-54
2022/05/29 15:01:20;;;;;;;;;;;;;;;;;;5094389;28;19908;-45
2022/05/29 15:03:47;;;;;;;;;;;;;;;;;;5095254;28;19918;-43
2022/05/29 15:06:13;;;;;;;;;;;;;;;;;;5095196;28;19916;-49
2022/05/29 15:11:24;;;;;;;;;;;;;;;;;;5095220;28;19976;-47
2022/05/29 15:13:57;;;;;;;;;;;;;;;;;;5094831;28;19914;-55
2022/05/29 15:16:23;;;;;;;;;;;;;;;;;;5095249;28;19908;-57
2022/05/29 15:18:50;;;;;;;;;;;;;;;;;;5095160;28;20452;-51
2022/05/29 15:24:14;;;;;;;;;;;;;;;;;;5095050;28;20373;-58
2022/05/29 15:26:41;;;;;;;;;;;;;;;;;;5094404;28;19931;-59
2022/05/29 15:29:07;;;;;;;;;;;;;;;;;;5094735;28;20407;-52
2022/05/29 15:31:34;;;;;;;;;;;;;;;;;;5094573;28;20415;-58
2022/05/29 15:34:00;;;;;;;;;;;;;;;;;;5095147;28;20335;-54
2022/05/29 15:36:27;;;;;;;;;;;;;;;;;;5094371;28;20270;-57
2022/05/29 15:38:53;;;;;;;;;;;;;;;;;;5094524;28;19941;-55
2022/05/29 15:41:20;;;;;;;;;;;;;;;;;;5094510;28;19915;-47
2022/05/29 15:43:46;;;;;;;;;;;;;;;;;;5094273;28;19919;-58
2022/05/29 15:46:13;;;;;;;;;;;;;;;;;;5094400;28;20024;-49
2022/05/29 15:48:40;;;;;;;;;;;;;;;;;;5094065;28;20294;-57
2022/05/29 15:51:06;;;;;;;;;;;;;;;;;;5094067;28;19938;-55
2022/05/29 15:53:33;;;;;;;;;;;;;;;;;;5094266;28;19934;-56
2022/05/29 15:55:59;;;;;;;;;;;;;;;;;;5094477;28;19951;-57
2022/05/29 15:58:26;;;;;;;;;;;;;;;;;;5093776;28;19908;-56
2022/05/29 16:00:52;;;;;;;;;;;;;;;;;;5094412;28;19915;-58
2022/05/29 16:03:18;;;;;;;;;;;;;;;;;;5094290;28;19954;-52
2022/05/29 16:05:45;;;;;;;;;;;;;;;;;;5094283;28;19994;-48
2022/05/29 16:08:11;;;;;;;;;;;;;;;;;;5093799;28;19924;-57
2022/05/29 16:10:38;;;;;;;;;;;;;;;;;;5093248;28;19908;-47
2022/05/29 16:13:05;;;;;;;;;;;;;;;;;;5093640;28;19960;-54
2022/05/29 16:15:34;;;;;;;;;;;;;;;;;;5093795;28;19908;-54
2022/05/29 16:18:03;;;;;;;;;;;;;;;;;;5093826;28;19934;-49
2022/05/29 16:20:31;;;;;;;;;;;;;;;;;;5093484;28;20278;-53
2022/05/29 16:22:58;;;;;;;;;;;;;;;;;;5093711;28;19908;-55
2022/05/29 16:25:24;;;;;;;;;;;;;;;;;;5093724;28;19994;-44
2022/05/29 16:27:51;;;;;;;;;;;;;;;;;;5093305;28;19916;-55
2022/05/29 16:30:20;;;;;;;;;;;;;;;;;;5093721;28;19923;-52
2022/05/29 16:32:47;;;;;;;;;;;;;;;;;;5093188;28;19974;-57
2022/05/29 16:35:14;;;;;;;;;;;;;;;;;;5094003;28;19908;-56
2022/05/29 16:48:38;;;;;;;;;;;;;;;;;;5093205;28;19961;-45
2022/05/29 16:51:06;;;;;;;;;;;;;;;;;;5093338;28;19916;-45
2022/05/29 16:53:32;;;;;;;;;;;;;;;;;;5093362;28;19992;-47
2022/05/29 16:55:59;;;;;;;;;;;;;;;;;;5093289;28;19908;-55
2022/05/29 16:58:25;;;;;;;;;;;;;;;;;;5093079;28;19909;-50
2022/05/29 17:00:52;;;;;;;;;;;;;;;;;;5093186;28;19915;-54
2022/05/29 17:03:18;;;;;;;;;;;;;;;;;;5093183;28;19912;-55
2022/05/29 17:05:45;;;;;;;;;;;;;;;;;;5093131;28;19943;-48
2022/05/29 17:08:12;;;;;;;;;;;;;;;;;;5093057;28;19924;-48
2022/05/29 17:10:38;;;;;;;;;;;;;;;;;;5092790;28;20239;-58
2022/05/29 17:13:04;;;;;;;;;;;;;;;;;;5092844;28;19916;-59
2022/05/29 17:15:31;;;;;;;;;;;;;;;;;;5093044;28;19908;-53
2022/05/29 17:17:57;;;;;;;;;;;;;;;;;;5093099;28;19933;-54
2022/05/29 17:20:25;;;;;;;;;;;;;;;;;;5092805;28;19908;-46
2022/05/29 17:22:52;;;;;;;;;;;;;;;;;;5093374;28;20009;-53
2022/05/29 17:25:18;;;;;;;;;;;;;;;;;;5097067;28;19909;-47
2022/05/29 17:27:45;;;;;;;;;;;;;;;;;;5096940;28;20347;-53
2022/05/29 17:30:11;;;;;;;;;;;;;;;;;;5097148;28;19915;-47
2022/05/29 17:32:38;;;;;;;;;;;;;;;;;;5096733;28;20359;-47
2022/05/29 17:35:04;;;;;;;;;;;;;;;;;;5097128;28;19951;-48
2022/05/29 17:37:31;;;;;;;;;;;;;;;;;;5096955;28;19904;-48
2022/05/29 17:39:58;;;;;;;;;;;;;;;;;;5096956;28;19965;-49